createdAt,value
2023-04-02T00:00:51.000Z,0
2023-04-02T00:01:55.000Z,0
2023-04-02T00:02:59.000Z,0
2023-04-02T00:04:04.000Z,0
2023-04-02T00:05:08.000Z,0
2023-04-02T00:06:12.000Z,0
2023-04-02T00:07:16.000Z,0
2023-04-02T00:08:21.000Z,0
2023-04-02T00:09:25.000Z,0
2023-04-02T00:10:29.000Z,0
2023-04-02T00:11:34.000Z,0
2023-04-02T00:12:39.000Z,0
2023-04-02T00:13:43.000Z,0
2023-04-02T00:14:47.000Z,0
2023-04-02T00:15:52.000Z,0
2023-04-02T00:16:56.000Z,0
2023-04-02T00:18:01.000Z,0
2023-04-02T00:19:05.000Z,0
2023-04-02T00:20:10.000Z,0
2023-04-02T00:21:14.000Z,0
2023-04-02T00:22:18.000Z,0
2023-04-02T00:23:22.000Z,0
2023-04-02T00:24:27.000Z,0
2023-04-02T00:25:31.000Z,0
2023-04-02T00:26:35.000Z,0
2023-04-02T00:27:40.000Z,0
2023-04-02T00:28:44.000Z,0
2023-04-02T00:29:49.000Z,0
2023-04-02T00:30:53.000Z,0
2023-04-02T00:31:57.000Z,0
2023-04-02T00:33:02.000Z,0
2023-04-02T00:34:06.000Z,0
2023-04-02T00:35:10.000Z,0
2023-04-02T00:36:15.000Z,0
2023-04-02T00:37:19.000Z,0
2023-04-02T00:38:23.000Z,0
2023-04-02T00:39:28.000Z,0
2023-04-02T00:40:32.000Z,0
2023-04-02T00:41:36.000Z,0
2023-04-02T00:42:41.000Z,0
2023-04-02T00:43:45.000Z,0
2023-04-02T00:44:54.000Z,0
2023-04-02T00:45:59.000Z,0
2023-04-02T00:47:03.000Z,0
2023-04-02T00:48:07.000Z,0
2023-04-02T00:49:12.000Z,0
2023-04-02T00:50:16.000Z,0
2023-04-02T00:51:20.000Z,0
2023-04-02T00:52:25.000Z,0
2023-04-02T00:53:29.000Z,0
2023-04-02T00:54:33.000Z,0
2023-04-02T00:55:37.000Z,0
2023-04-02T00:56:42.000Z,0
2023-04-02T00:57:52.000Z,0
2023-04-02T00:58:56.000Z,0
2023-04-02T01:00:01.000Z,0
2023-04-02T01:01:05.000Z,0
2023-04-02T01:02:09.000Z,0
2023-04-02T01:03:14.000Z,0
2023-04-02T01:04:18.000Z,0
2023-04-02T01:05:22.000Z,0
2023-04-02T01:06:27.000Z,0
2023-04-02T01:07:31.000Z,0
2023-04-02T01:08:35.000Z,0
2023-04-02T01:09:40.000Z,0
2023-04-02T01:10:44.000Z,0
2023-04-02T01:11:49.000Z,0
2023-04-02T01:12:53.000Z,0
2023-04-02T01:13:57.000Z,0
2023-04-02T01:15:02.000Z,0
2023-04-02T01:16:06.000Z,0
2023-04-02T01:17:10.000Z,0
2023-04-02T01:18:15.000Z,0
2023-04-02T01:19:19.000Z,0
2023-04-02T01:20:23.000Z,0
2023-04-02T01:21:28.000Z,0
2023-04-02T01:22:32.000Z,0
2023-04-02T01:23:36.000Z,0
2023-04-02T01:24:41.000Z,0
2023-04-02T01:25:45.000Z,0
2023-04-02T01:26:49.000Z,0
2023-04-02T01:27:53.000Z,0
2023-04-02T01:28:58.000Z,0
2023-04-02T01:30:02.000Z,0
2023-04-02T01:31:07.000Z,0
2023-04-02T01:32:11.000Z,0
2023-04-02T01:33:15.000Z,0
2023-04-02T01:34:20.000Z,0
2023-04-02T01:35:24.000Z,0
2023-04-02T01:36:28.000Z,0
2023-04-02T01:37:33.000Z,0
2023-04-02T01:38:37.000Z,0
2023-04-02T01:39:41.000Z,0
2023-04-02T01:40:46.000Z,0
2023-04-02T01:41:50.000Z,0
2023-04-02T01:42:54.000Z,0
2023-04-02T01:43:59.000Z,0
2023-04-02T01:45:03.000Z,0
2023-04-02T01:46:13.000Z,0
2023-04-02T01:47:18.000Z,0
2023-04-02T01:48:23.000Z,0
2023-04-02T01:49:27.000Z,0
2023-04-02T01:50:31.000Z,0
2023-04-02T01:51:36.000Z,0
2023-04-02T01:52:40.000Z,0
2023-04-02T01:53:45.000Z,0
2023-04-02T01:54:49.000Z,0
2023-04-02T01:55:53.000Z,0
2023-04-02T01:56:58.000Z,0
2023-04-02T01:58:02.000Z,0
2023-04-02T01:59:07.000Z,0
2023-04-02T02:00:11.000Z,0
2023-04-02T02:01:15.000Z,0
2023-04-02T02:02:20.000Z,0
2023-04-02T02:03:24.000Z,0
2023-04-02T02:04:29.000Z,0
2023-04-02T02:05:33.000Z,0
2023-04-02T02:06:37.000Z,0
2023-04-02T02:07:43.000Z,0
2023-04-02T02:08:47.000Z,0
2023-04-02T02:09:51.000Z,0
2023-04-02T02:10:56.000Z,0
2023-04-02T02:12:00.000Z,0
2023-04-02T02:13:04.000Z,0
2023-04-02T02:14:08.000Z,0
2023-04-02T02:15:13.000Z,0
2023-04-02T02:16:17.000Z,0
2023-04-02T02:17:21.000Z,0
2023-04-02T02:18:26.000Z,0
2023-04-02T02:19:30.000Z,0
2023-04-02T02:20:34.000Z,0
2023-04-02T02:21:39.000Z,0
2023-04-02T02:22:43.000Z,0
2023-04-02T02:23:47.000Z,0
2023-04-02T02:24:52.000Z,0
2023-04-02T02:25:56.000Z,0
2023-04-02T02:27:00.000Z,0
2023-04-02T02:28:05.000Z,0
2023-04-02T02:29:09.000Z,0
2023-04-02T02:30:13.000Z,0
2023-04-02T02:31:17.000Z,0
2023-04-02T02:32:22.000Z,0
2023-04-02T02:33:27.000Z,0
2023-04-02T02:34:32.000Z,0
2023-04-02T02:35:36.000Z,0
2023-04-02T02:36:40.000Z,0
2023-04-02T02:37:45.000Z,0
2023-04-02T02:38:49.000Z,0
2023-04-02T02:39:54.000Z,0
2023-04-02T02:40:58.000Z,0
2023-04-02T02:42:02.000Z,0
2023-04-02T02:43:07.000Z,0
2023-04-02T02:44:11.000Z,0
2023-04-02T02:45:15.000Z,0
2023-04-02T02:46:19.000Z,0
2023-04-02T02:47:24.000Z,0
2023-04-02T02:48:28.000Z,0
2023-04-02T02:49:32.000Z,0
2023-04-02T02:50:37.000Z,0
2023-04-02T02:51:41.000Z,0
2023-04-02T02:52:50.000Z,0
2023-04-02T02:53:54.000Z,0
2023-04-02T02:54:59.000Z,0
2023-04-02T02:56:03.000Z,0
2023-04-02T02:57:07.000Z,0
2023-04-02T02:58:12.000Z,0
2023-04-02T02:59:16.000Z,0
2023-04-02T03:00:20.000Z,0
2023-04-02T03:01:25.000Z,0
2023-04-02T03:02:29.000Z,0
2023-04-02T03:03:33.000Z,0
2023-04-02T03:04:37.000Z,0
2023-04-02T03:05:42.000Z,0
2023-04-02T03:06:46.000Z,0
2023-04-02T03:07:50.000Z,0
2023-04-02T03:08:54.000Z,0
2023-04-02T03:09:59.000Z,0
2023-04-02T03:11:03.000Z,0
2023-04-02T03:12:07.000Z,0
2023-04-02T03:13:12.000Z,0
2023-04-02T03:14:16.000Z,0
2023-04-02T03:15:20.000Z,0
2023-04-02T03:16:25.000Z,0
2023-04-02T03:17:29.000Z,0
2023-04-02T03:18:33.000Z,0
2023-04-02T03:19:38.000Z,0
2023-04-02T03:20:42.000Z,0
2023-04-02T03:21:46.000Z,0
2023-04-02T03:22:51.000Z,0
2023-04-02T03:23:55.000Z,0
2023-04-02T03:24:59.000Z,0
2023-04-02T03:26:03.000Z,0
2023-04-02T03:27:08.000Z,0
2023-04-02T03:28:12.000Z,0
2023-04-02T03:29:16.000Z,0
2023-04-02T03:30:21.000Z,0
2023-04-02T03:31:25.000Z,0
2023-04-02T03:32:29.000Z,0
2023-04-02T03:33:33.000Z,0
2023-04-02T03:34:38.000Z,0
2023-04-02T03:35:42.000Z,0
2023-04-02T03:36:46.000Z,0
2023-04-02T03:37:51.000Z,0
2023-04-02T03:38:55.000Z,0
2023-04-02T03:39:59.000Z,0
2023-04-02T03:41:03.000Z,0
2023-04-02T03:42:08.000Z,0
2023-04-02T03:43:12.000Z,0
2023-04-02T03:44:16.000Z,0
2023-04-02T03:45:20.000Z,0
2023-04-02T03:46:25.000Z,0
2023-04-02T03:47:29.000Z,0
2023-04-02T03:48:33.000Z,0
2023-04-02T03:49:38.000Z,0
2023-04-02T03:50:42.000Z,0
2023-04-02T03:51:46.000Z,0
2023-04-02T03:52:50.000Z,0
2023-04-02T03:53:55.000Z,0
2023-04-02T03:54:59.000Z,0
2023-04-02T03:56:03.000Z,0
2023-04-02T03:57:09.000Z,0
2023-04-02T03:58:13.000Z,0
2023-04-02T03:59:17.000Z,0
2023-04-02T04:00:21.000Z,0
2023-04-02T04:01:26.000Z,0
2023-04-02T04:02:30.000Z,0
2023-04-02T04:03:34.000Z,0
2023-04-02T04:04:38.000Z,0
2023-04-02T04:05:43.000Z,0
2023-04-02T04:06:47.000Z,0
2023-04-02T04:07:51.000Z,0
2023-04-02T04:08:56.000Z,0
2023-04-02T04:10:00.000Z,0
2023-04-02T04:11:04.000Z,0
2023-04-02T04:12:08.000Z,0
2023-04-02T04:13:13.000Z,0
2023-04-02T04:14:17.000Z,0
2023-04-02T04:15:21.000Z,0
2023-04-02T04:16:26.000Z,0
2023-04-02T04:17:30.000Z,0
2023-04-02T04:18:34.000Z,0
2023-04-02T04:19:38.000Z,0
2023-04-02T04:20:43.000Z,0
2023-04-02T04:21:47.000Z,0
2023-04-02T04:22:52.000Z,0
2023-04-02T04:23:56.000Z,0
2023-04-02T04:25:00.000Z,0
2023-04-02T04:26:04.000Z,0
2023-04-02T04:27:09.000Z,0
2023-04-02T04:28:13.000Z,0
2023-04-02T04:29:17.000Z,0
2023-04-02T04:30:22.000Z,0
2023-04-02T04:31:26.000Z,0
2023-04-02T04:32:30.000Z,0
2023-04-02T04:33:35.000Z,0
2023-04-02T04:34:39.000Z,0
2023-04-02T04:35:43.000Z,0
2023-04-02T04:36:47.000Z,0
2023-04-02T04:37:52.000Z,0
2023-04-02T04:38:56.000Z,0
2023-04-02T04:40:00.000Z,0
2023-04-02T04:41:05.000Z,1
2023-04-02T04:42:09.000Z,1
2023-04-02T04:43:13.000Z,1
2023-04-02T04:44:18.000Z,1
2023-04-02T04:45:22.000Z,1
2023-04-02T04:46:26.000Z,1
2023-04-02T04:47:30.000Z,1
2023-04-02T04:48:35.000Z,1
2023-04-02T04:49:39.000Z,1
2023-04-02T04:50:43.000Z,1
2023-04-02T04:51:47.000Z,1
2023-04-02T04:52:52.000Z,1
2023-04-02T04:53:56.000Z,1
2023-04-02T04:55:00.000Z,1
2023-04-02T04:56:05.000Z,1
2023-04-02T04:57:09.000Z,1
2023-04-02T04:58:13.000Z,1
2023-04-02T04:59:17.000Z,1
2023-04-02T05:00:22.000Z,2
2023-04-02T05:01:26.000Z,2
2023-04-02T05:02:30.000Z,2
2023-04-02T05:03:35.000Z,2
2023-04-02T05:04:39.000Z,2
2023-04-02T05:05:43.000Z,3
2023-04-02T05:06:48.000Z,4
2023-04-02T05:07:52.000Z,4
2023-04-02T05:08:56.000Z,4
2023-04-02T05:10:01.000Z,5
2023-04-02T05:11:05.000Z,6
2023-04-02T05:12:09.000Z,6
2023-04-02T05:13:13.000Z,6
2023-04-02T05:14:18.000Z,6
2023-04-02T05:15:22.000Z,6
2023-04-02T05:16:26.000Z,6
2023-04-02T05:17:30.000Z,6
2023-04-02T05:18:35.000Z,6
2023-04-02T05:19:39.000Z,7
2023-04-02T05:20:49.000Z,6
2023-04-02T05:21:53.000Z,6
2023-04-02T05:22:57.000Z,6
2023-04-02T05:24:02.000Z,7
2023-04-02T05:25:06.000Z,6
2023-04-02T05:26:10.000Z,6
2023-04-02T05:27:14.000Z,6
2023-04-02T05:28:19.000Z,8
2023-04-02T05:29:23.000Z,8
2023-04-02T05:30:27.000Z,6
2023-04-02T05:31:31.000Z,6
2023-04-02T05:32:36.000Z,6
2023-04-02T05:33:40.000Z,8
2023-04-02T05:34:44.000Z,7
2023-04-02T05:35:49.000Z,8
2023-04-02T05:36:53.000Z,9
2023-04-02T05:37:57.000Z,9
2023-04-02T05:39:01.000Z,9
2023-04-02T05:40:06.000Z,9
2023-04-02T05:41:10.000Z,10
2023-04-02T05:42:14.000Z,10
2023-04-02T05:43:18.000Z,11
2023-04-02T05:44:23.000Z,11
2023-04-02T05:45:27.000Z,13
2023-04-02T05:46:31.000Z,15
2023-04-02T05:47:35.000Z,16
2023-04-02T05:48:40.000Z,15
2023-04-02T05:49:44.000Z,16
2023-04-02T05:50:48.000Z,19
2023-04-02T05:51:53.000Z,21
2023-04-02T05:52:57.000Z,21
2023-04-02T05:54:01.000Z,18
2023-04-02T05:55:05.000Z,16
2023-04-02T05:56:10.000Z,16
2023-04-02T05:57:14.000Z,18
2023-04-02T05:58:18.000Z,19
2023-04-02T05:59:22.000Z,19
2023-04-02T06:00:27.000Z,21
2023-04-02T06:01:31.000Z,18
2023-04-02T06:02:35.000Z,18
2023-04-02T06:03:39.000Z,16
2023-04-02T06:04:44.000Z,21
2023-04-02T06:05:48.000Z,18
2023-04-02T06:06:52.000Z,18
2023-04-02T06:07:57.000Z,16
2023-04-02T06:09:01.000Z,19
2023-04-02T06:10:05.000Z,17
2023-04-02T06:11:09.000Z,20
2023-04-02T06:12:14.000Z,21
2023-04-02T06:13:18.000Z,21
2023-04-02T06:14:22.000Z,20
2023-04-02T06:15:27.000Z,19
2023-04-02T06:16:31.000Z,19
2023-04-02T06:17:35.000Z,21
2023-04-02T06:18:40.000Z,21
2023-04-02T06:19:44.000Z,21
2023-04-02T06:20:48.000Z,21
2023-04-02T06:21:53.000Z,25
2023-04-02T06:22:57.000Z,31
2023-04-02T06:24:01.000Z,31
2023-04-02T06:25:05.000Z,38
2023-04-02T06:26:10.000Z,40
2023-04-02T06:27:14.000Z,43
2023-04-02T06:28:18.000Z,46
2023-04-02T06:29:23.000Z,44
2023-04-02T06:30:27.000Z,40
2023-04-02T06:31:31.000Z,34
2023-04-02T06:32:36.000Z,35
2023-04-02T06:33:40.000Z,39
2023-04-02T06:34:44.000Z,38
2023-04-02T06:35:48.000Z,33
2023-04-02T06:36:53.000Z,29
2023-04-02T06:37:57.000Z,27
2023-04-02T06:39:01.000Z,21
2023-04-02T06:40:05.000Z,23
2023-04-02T06:41:10.000Z,28
2023-04-02T06:42:14.000Z,28
2023-04-02T06:43:18.000Z,32
2023-04-02T06:44:23.000Z,31
2023-04-02T06:45:27.000Z,32
2023-04-02T06:46:31.000Z,35
2023-04-02T06:47:35.000Z,35
2023-04-02T06:48:40.000Z,34
2023-04-02T06:49:44.000Z,35
2023-04-02T06:50:48.000Z,38
2023-04-02T06:51:53.000Z,37
2023-04-02T06:52:57.000Z,38
2023-04-02T06:54:01.000Z,37
2023-04-02T06:55:05.000Z,37
2023-04-02T06:56:10.000Z,38
2023-04-02T06:57:14.000Z,40
2023-04-02T06:58:18.000Z,37
2023-04-02T06:59:22.000Z,39
2023-04-02T07:00:27.000Z,42
2023-04-02T07:01:31.000Z,45
2023-04-02T07:02:35.000Z,48
2023-04-02T07:03:39.000Z,46
2023-04-02T07:04:44.000Z,45
2023-04-02T07:05:48.000Z,48
2023-04-02T07:06:52.000Z,52
2023-04-02T07:07:56.000Z,54
2023-04-02T07:09:02.000Z,55
2023-04-02T07:10:06.000Z,57
2023-04-02T07:11:10.000Z,57
2023-04-02T07:12:15.000Z,59
2023-04-02T07:13:19.000Z,60
2023-04-02T07:14:23.000Z,63
2023-04-02T07:15:27.000Z,69
2023-04-02T07:16:32.000Z,77
2023-04-02T07:17:36.000Z,78
2023-04-02T07:18:40.000Z,83
2023-04-02T07:19:44.000Z,83
2023-04-02T07:20:49.000Z,82
2023-04-02T07:21:53.000Z,81
2023-04-02T07:22:57.000Z,86
2023-04-02T07:24:02.000Z,87
2023-04-02T07:25:06.000Z,89
2023-04-02T07:26:10.000Z,86
2023-04-02T07:27:14.000Z,92
2023-04-02T07:28:19.000Z,87
2023-04-02T07:29:23.000Z,90
2023-04-02T07:30:27.000Z,90
2023-04-02T07:31:32.000Z,87
2023-04-02T07:32:36.000Z,91
2023-04-02T07:33:40.000Z,91
2023-04-02T07:34:44.000Z,95
2023-04-02T07:35:48.000Z,98
2023-04-02T07:36:53.000Z,99
2023-04-02T07:37:57.000Z,100
2023-04-02T07:39:01.000Z,114
2023-04-02T07:40:06.000Z,114
2023-04-02T07:41:10.000Z,117
2023-04-02T07:42:14.000Z,127
2023-04-02T07:43:19.000Z,125
2023-04-02T07:44:23.000Z,116
2023-04-02T07:45:27.000Z,116
2023-04-02T07:46:31.000Z,106
2023-04-02T07:47:36.000Z,108
2023-04-02T07:48:40.000Z,101
2023-04-02T07:49:44.000Z,97
2023-04-02T07:50:48.000Z,101
2023-04-02T07:51:53.000Z,113
2023-04-02T07:52:57.000Z,117
2023-04-02T07:54:01.000Z,116
2023-04-02T07:55:05.000Z,114
2023-04-02T07:56:10.000Z,114
2023-04-02T07:57:14.000Z,110
2023-04-02T07:58:18.000Z,107
2023-04-02T07:59:23.000Z,101
2023-04-02T08:00:27.000Z,101
2023-04-02T08:01:31.000Z,96
2023-04-02T08:02:35.000Z,82
2023-04-02T08:03:40.000Z,74
2023-04-02T08:04:44.000Z,73
2023-04-02T08:05:48.000Z,74
2023-04-02T08:06:53.000Z,76
2023-04-02T08:07:57.000Z,77
2023-04-02T08:09:01.000Z,80
2023-04-02T08:10:06.000Z,80
2023-04-02T08:11:10.000Z,79
2023-04-02T08:12:14.000Z,77
2023-04-02T08:13:18.000Z,77
2023-04-02T08:14:23.000Z,78
2023-04-02T08:15:27.000Z,82
2023-04-02T08:16:31.000Z,84
2023-04-02T08:17:35.000Z,85
2023-04-02T08:18:40.000Z,88
2023-04-02T08:19:44.000Z,93
2023-04-02T08:20:48.000Z,96
2023-04-02T08:21:53.000Z,94
2023-04-02T08:22:57.000Z,94
2023-04-02T08:24:01.000Z,92
2023-04-02T08:25:06.000Z,92
2023-04-02T08:26:10.000Z,104
2023-04-02T08:27:14.000Z,118
2023-04-02T08:28:18.000Z,134
2023-04-02T08:29:23.000Z,152
2023-04-02T08:30:27.000Z,177
2023-04-02T08:31:31.000Z,206
2023-04-02T08:32:35.000Z,228
2023-04-02T08:33:40.000Z,222
2023-04-02T08:34:44.000Z,225
2023-04-02T08:35:48.000Z,241
2023-04-02T08:36:53.000Z,239
2023-04-02T08:37:57.000Z,232
2023-04-02T08:39:01.000Z,224
2023-04-02T08:40:05.000Z,195
2023-04-02T08:41:10.000Z,170
2023-04-02T08:42:14.000Z,138
2023-04-02T08:43:18.000Z,122
2023-04-02T08:44:22.000Z,114
2023-04-02T08:45:27.000Z,107
2023-04-02T08:46:31.000Z,116
2023-04-02T08:47:35.000Z,122
2023-04-02T08:48:39.000Z,115
2023-04-02T08:49:45.000Z,108
2023-04-02T08:50:49.000Z,99
2023-04-02T08:51:53.000Z,95
2023-04-02T08:52:58.000Z,90
2023-04-02T08:54:02.000Z,93
2023-04-02T08:55:06.000Z,103
2023-04-02T08:56:10.000Z,99
2023-04-02T08:57:15.000Z,96
2023-04-02T08:58:19.000Z,98
2023-04-02T08:59:23.000Z,101
2023-04-02T09:00:27.000Z,101
2023-04-02T09:01:32.000Z,93
2023-04-02T09:02:36.000Z,84
2023-04-02T09:03:40.000Z,89
2023-04-02T09:04:44.000Z,97
2023-04-02T09:05:48.000Z,93
2023-04-02T09:06:53.000Z,96
2023-04-02T09:07:57.000Z,100
2023-04-02T09:09:02.000Z,106
2023-04-02T09:10:07.000Z,106
2023-04-02T09:11:11.000Z,104
2023-04-02T09:12:15.000Z,108
2023-04-02T09:13:19.000Z,110
2023-04-02T09:14:24.000Z,113
2023-04-02T09:15:28.000Z,125
2023-04-02T09:16:32.000Z,129
2023-04-02T09:17:36.000Z,126
2023-04-02T09:18:40.000Z,123
2023-04-02T09:19:45.000Z,125
2023-04-02T09:20:49.000Z,121
2023-04-02T09:21:53.000Z,113
2023-04-02T09:22:57.000Z,110
2023-04-02T09:24:02.000Z,109
2023-04-02T09:25:06.000Z,115
2023-04-02T09:26:10.000Z,123
2023-04-02T09:27:14.000Z,119
2023-04-02T09:28:18.000Z,114
2023-04-02T09:29:23.000Z,109
2023-04-02T09:30:32.000Z,109
2023-04-02T09:31:36.000Z,109
2023-04-02T09:32:41.000Z,108
2023-04-02T09:33:45.000Z,105
2023-04-02T09:34:49.000Z,104
2023-04-02T09:35:53.000Z,102
2023-04-02T09:36:57.000Z,99
2023-04-02T09:38:02.000Z,98
2023-04-02T09:39:06.000Z,95
2023-04-02T09:40:10.000Z,90
2023-04-02T09:41:14.000Z,89
2023-04-02T09:42:19.000Z,90
2023-04-02T09:43:23.000Z,88
2023-04-02T09:44:27.000Z,90
2023-04-02T09:45:31.000Z,93
2023-04-02T09:46:36.000Z,93
2023-04-02T09:47:40.000Z,93
2023-04-02T09:48:44.000Z,98
2023-04-02T09:49:48.000Z,101
2023-04-02T09:50:53.000Z,106
2023-04-02T09:51:57.000Z,109
2023-04-02T09:53:01.000Z,111
2023-04-02T09:54:05.000Z,108
2023-04-02T09:55:10.000Z,99
2023-04-02T09:56:14.000Z,105
2023-04-02T09:57:18.000Z,100
2023-04-02T09:58:22.000Z,91
2023-04-02T09:59:27.000Z,98
2023-04-02T10:00:31.000Z,102
2023-04-02T10:01:35.000Z,127
2023-04-02T10:02:40.000Z,127
2023-04-02T10:03:44.000Z,109
2023-04-02T10:04:48.000Z,98
2023-04-02T10:05:52.000Z,97
2023-04-02T10:06:57.000Z,96
2023-04-02T10:08:01.000Z,92
2023-04-02T10:09:05.000Z,91
2023-04-02T10:10:09.000Z,92
2023-04-02T10:11:14.000Z,90
2023-04-02T10:12:18.000Z,99
2023-04-02T10:13:22.000Z,105
2023-04-02T10:14:26.000Z,106
2023-04-02T10:15:31.000Z,104
2023-04-02T10:16:35.000Z,109
2023-04-02T10:17:39.000Z,119
2023-04-02T10:18:44.000Z,124
2023-04-02T10:19:48.000Z,125
2023-04-02T10:20:53.000Z,125
2023-04-02T10:21:57.000Z,125
2023-04-02T10:23:02.000Z,123
2023-04-02T10:24:06.000Z,123
2023-04-02T10:25:10.000Z,117
2023-04-02T10:26:14.000Z,113
2023-04-02T10:27:19.000Z,99
2023-04-02T10:28:23.000Z,94
2023-04-02T10:29:27.000Z,105
2023-04-02T10:30:31.000Z,104
2023-04-02T10:31:36.000Z,104
2023-04-02T10:32:40.000Z,116
2023-04-02T10:33:44.000Z,113
2023-04-02T10:34:48.000Z,95
2023-04-02T10:35:53.000Z,84
2023-04-02T10:36:57.000Z,86
2023-04-02T10:38:01.000Z,94
2023-04-02T10:39:06.000Z,100
2023-04-02T10:40:10.000Z,99
2023-04-02T10:41:14.000Z,94
2023-04-02T10:42:18.000Z,88
2023-04-02T10:43:22.000Z,87
2023-04-02T10:44:27.000Z,86
2023-04-02T10:45:31.000Z,87
2023-04-02T10:46:35.000Z,92
2023-04-02T10:47:39.000Z,99
2023-04-02T10:48:44.000Z,113
2023-04-02T10:49:48.000Z,121
2023-04-02T10:50:52.000Z,119
2023-04-02T10:51:56.000Z,118
2023-04-02T10:53:00.000Z,120
2023-04-02T10:54:05.000Z,119
2023-04-02T10:55:09.000Z,119
2023-04-02T10:56:13.000Z,116
2023-04-02T10:57:17.000Z,113
2023-04-02T10:58:22.000Z,113
2023-04-02T10:59:26.000Z,118
2023-04-02T11:00:30.000Z,121
2023-04-02T11:01:34.000Z,118
2023-04-02T11:02:39.000Z,127
2023-04-02T11:03:43.000Z,139
2023-04-02T11:04:47.000Z,143
2023-04-02T11:05:51.000Z,149
2023-04-02T11:06:56.000Z,157
2023-04-02T11:08:00.000Z,161
2023-04-02T11:09:04.000Z,171
2023-04-02T11:10:08.000Z,166
2023-04-02T11:11:13.000Z,157
2023-04-02T11:12:17.000Z,148
2023-04-02T11:13:21.000Z,135
2023-04-02T11:14:25.000Z,124
2023-04-02T11:15:29.000Z,123
2023-04-02T11:16:34.000Z,118
2023-04-02T11:17:38.000Z,102
2023-04-02T11:18:42.000Z,97
2023-04-02T11:19:46.000Z,98
2023-04-02T11:20:51.000Z,101
2023-04-02T11:21:55.000Z,104
2023-04-02T11:22:59.000Z,108
2023-04-02T11:24:03.000Z,110
2023-04-02T11:25:08.000Z,111
2023-04-02T11:26:12.000Z,108
2023-04-02T11:27:17.000Z,105
2023-04-02T11:28:21.000Z,105
2023-04-02T11:29:25.000Z,112
2023-04-02T11:30:30.000Z,126
2023-04-02T11:31:34.000Z,140
2023-04-02T11:32:38.000Z,152
2023-04-02T11:33:42.000Z,172
2023-04-02T11:34:47.000Z,180
2023-04-02T11:35:51.000Z,185
2023-04-02T11:36:55.000Z,190
2023-04-02T11:37:59.000Z,181
2023-04-02T11:39:04.000Z,180
2023-04-02T11:40:08.000Z,191
2023-04-02T11:41:12.000Z,191
2023-04-02T11:42:17.000Z,188
2023-04-02T11:43:21.000Z,206
2023-04-02T11:44:25.000Z,228
2023-04-02T11:45:30.000Z,231
2023-04-02T11:46:34.000Z,214
2023-04-02T11:47:38.000Z,195
2023-04-02T11:48:42.000Z,194
2023-04-02T11:49:46.000Z,189
2023-04-02T11:50:51.000Z,185
2023-04-02T11:51:55.000Z,175
2023-04-02T11:52:59.000Z,167
2023-04-02T11:54:03.000Z,156
2023-04-02T11:55:08.000Z,145
2023-04-02T11:56:12.000Z,135
2023-04-02T11:57:16.000Z,147
2023-04-02T11:58:21.000Z,166
2023-04-02T11:59:25.000Z,184
2023-04-02T12:00:29.000Z,193
2023-04-02T12:01:33.000Z,222
2023-04-02T12:02:38.000Z,243
2023-04-02T12:03:42.000Z,256
2023-04-02T12:04:46.000Z,252
2023-04-02T12:05:50.000Z,240
2023-04-02T12:06:55.000Z,238
2023-04-02T12:07:59.000Z,230
2023-04-02T12:09:03.000Z,222
2023-04-02T12:10:07.000Z,219
2023-04-02T12:11:12.000Z,213
2023-04-02T12:12:16.000Z,214
2023-04-02T12:13:20.000Z,213
2023-04-02T12:14:24.000Z,215
2023-04-02T12:15:29.000Z,222
2023-04-02T12:16:33.000Z,222
2023-04-02T12:17:37.000Z,214
2023-04-02T12:18:41.000Z,220
2023-04-02T12:19:46.000Z,217
2023-04-02T12:20:50.000Z,213
2023-04-02T12:21:54.000Z,199
2023-04-02T12:22:58.000Z,169
2023-04-02T12:24:03.000Z,148
2023-04-02T12:25:07.000Z,132
2023-04-02T12:26:11.000Z,125
2023-04-02T12:27:16.000Z,131
2023-04-02T12:28:20.000Z,145
2023-04-02T12:29:24.000Z,155
2023-04-02T12:30:28.000Z,162
2023-04-02T12:31:33.000Z,171
2023-04-02T12:32:37.000Z,182
2023-04-02T12:33:41.000Z,192
2023-04-02T12:34:45.000Z,197
2023-04-02T12:35:50.000Z,200
2023-04-02T12:36:54.000Z,200
2023-04-02T12:38:03.000Z,203
2023-04-02T12:39:07.000Z,213
2023-04-02T12:40:12.000Z,218
2023-04-02T12:41:16.000Z,217
2023-04-02T12:42:20.000Z,206
2023-04-02T12:43:24.000Z,189
2023-04-02T12:44:29.000Z,176
2023-04-02T12:45:33.000Z,187
2023-04-02T12:46:37.000Z,183
2023-04-02T12:47:41.000Z,165
2023-04-02T12:48:46.000Z,151
2023-04-02T12:49:50.000Z,145
2023-04-02T12:50:54.000Z,126
2023-04-02T12:51:58.000Z,104
2023-04-02T12:53:03.000Z,93
2023-04-02T12:54:07.000Z,93
2023-04-02T12:55:11.000Z,97
2023-04-02T12:56:16.000Z,102
2023-04-02T12:57:20.000Z,112
2023-04-02T12:58:24.000Z,123
2023-04-02T12:59:29.000Z,131
2023-04-02T13:00:33.000Z,135
2023-04-02T13:01:37.000Z,138
2023-04-02T13:02:41.000Z,141
2023-04-02T13:03:46.000Z,143
2023-04-02T13:04:50.000Z,148
2023-04-02T13:05:54.000Z,153
2023-04-02T13:06:58.000Z,157
2023-04-02T13:08:03.000Z,163
2023-04-02T13:09:07.000Z,168
2023-04-02T13:10:11.000Z,166
2023-04-02T13:11:16.000Z,161
2023-04-02T13:12:20.000Z,157
2023-04-02T13:13:24.000Z,155
2023-04-02T13:14:28.000Z,153
2023-04-02T13:15:33.000Z,152
2023-04-02T13:16:37.000Z,151
2023-04-02T13:17:41.000Z,148
2023-04-02T13:18:45.000Z,142
2023-04-02T13:19:50.000Z,136
2023-04-02T13:20:54.000Z,132
2023-04-02T13:21:58.000Z,129
2023-04-02T13:23:02.000Z,122
2023-04-02T13:24:07.000Z,114
2023-04-02T13:25:11.000Z,113
2023-04-02T13:26:15.000Z,116
2023-04-02T13:27:19.000Z,121
2023-04-02T13:28:24.000Z,127
2023-04-02T13:29:28.000Z,129
2023-04-02T13:30:32.000Z,131
2023-04-02T13:31:36.000Z,136
2023-04-02T13:32:41.000Z,143
2023-04-02T13:33:45.000Z,150
2023-04-02T13:34:49.000Z,155
2023-04-02T13:35:54.000Z,164
2023-04-02T13:36:58.000Z,172
2023-04-02T13:38:02.000Z,177
2023-04-02T13:39:06.000Z,176
2023-04-02T13:40:11.000Z,178
2023-04-02T13:41:15.000Z,185
2023-04-02T13:42:19.000Z,192
2023-04-02T13:43:28.000Z,198
2023-04-02T13:44:38.000Z,203
2023-04-02T13:45:42.000Z,199
2023-04-02T13:46:46.000Z,182
2023-04-02T13:47:50.000Z,163
2023-04-02T13:48:55.000Z,147
2023-04-02T13:49:59.000Z,134
2023-04-02T13:51:03.000Z,125
2023-04-02T13:52:07.000Z,115
2023-04-02T13:53:12.000Z,105
2023-04-02T13:54:16.000Z,99
2023-04-02T13:55:20.000Z,97
2023-04-02T13:56:25.000Z,96
2023-04-02T13:57:29.000Z,95
2023-04-02T13:58:33.000Z,98
2023-04-02T13:59:37.000Z,103
2023-04-02T14:00:42.000Z,100
2023-04-02T14:01:46.000Z,95
2023-04-02T14:02:50.000Z,86
2023-04-02T14:03:54.000Z,81
2023-04-02T14:04:58.000Z,78
2023-04-02T14:06:03.000Z,77
2023-04-02T14:07:07.000Z,78
2023-04-02T14:08:11.000Z,79
2023-04-02T14:09:15.000Z,78
2023-04-02T14:10:20.000Z,74
2023-04-02T14:11:24.000Z,69
2023-04-02T14:12:28.000Z,64
2023-04-02T14:13:32.000Z,62
2023-04-02T14:14:36.000Z,61
2023-04-02T14:15:41.000Z,61
2023-04-02T14:16:45.000Z,61
2023-04-02T14:17:49.000Z,64
2023-04-02T14:18:54.000Z,68
2023-04-02T14:19:58.000Z,70
2023-04-02T14:21:02.000Z,73
2023-04-02T14:22:06.000Z,74
2023-04-02T14:23:11.000Z,78
2023-04-02T14:24:15.000Z,83
2023-04-02T14:25:19.000Z,89
2023-04-02T14:26:23.000Z,91
2023-04-02T14:27:28.000Z,92
2023-04-02T14:28:32.000Z,95
2023-04-02T14:29:36.000Z,99
2023-04-02T14:30:40.000Z,103
2023-04-02T14:31:44.000Z,108
2023-04-02T14:32:49.000Z,112
2023-04-02T14:33:53.000Z,115
2023-04-02T14:34:57.000Z,114
2023-04-02T14:36:01.000Z,112
2023-04-02T14:37:06.000Z,113
2023-04-02T14:38:10.000Z,116
2023-04-02T14:39:14.000Z,120
2023-04-02T14:40:18.000Z,121
2023-04-02T14:41:23.000Z,119
2023-04-02T14:42:27.000Z,118
2023-04-02T14:43:31.000Z,119
2023-04-02T14:44:40.000Z,119
2023-04-02T14:45:45.000Z,116
2023-04-02T14:46:49.000Z,113
2023-04-02T14:47:53.000Z,107
2023-04-02T14:48:58.000Z,104
2023-04-02T14:50:02.000Z,104
2023-04-02T14:51:06.000Z,105
2023-04-02T14:52:11.000Z,103
2023-04-02T14:53:15.000Z,102
2023-04-02T14:54:19.000Z,104
2023-04-02T14:55:23.000Z,106
2023-04-02T14:56:28.000Z,107
2023-04-02T14:57:32.000Z,109
2023-04-02T14:58:36.000Z,107
2023-04-02T14:59:40.000Z,104
2023-04-02T15:00:45.000Z,104
2023-04-02T15:01:49.000Z,104
2023-04-02T15:02:53.000Z,104
2023-04-02T15:03:59.000Z,104
2023-04-02T15:05:03.000Z,104
2023-04-02T15:06:07.000Z,104
2023-04-02T15:07:11.000Z,102
2023-04-02T15:08:16.000Z,99
2023-04-02T15:09:20.000Z,96
2023-04-02T15:10:24.000Z,96
2023-04-02T15:11:28.000Z,98
2023-04-02T15:12:33.000Z,98
2023-04-02T15:13:42.000Z,95
2023-04-02T15:14:46.000Z,92
2023-04-02T15:15:50.000Z,91
2023-04-02T15:16:55.000Z,90
2023-04-02T15:17:59.000Z,92